Time;durP1;ratioP1;P1;durP2;ratioP2;P2;SDS_P1;SDS_P2;PMS_P1;PMS_P2;Temp;Humidity;BMP_temperature;BMP_pressure;BME280_temperature;BME280_humidity;BME280_pressure;Samples;Min_cycle;Max_cycle;Signal;HPM_P1;HPM_P2
2023/10/19 00:01:15;;;;;;;2.80;2.50;;;;;;;7.71;nan;-22127.03;5000862;28;20199;-69
2023/10/19 00:03:44;;;;;;;2.37;2.23;;;;;;;7.84;nan;-22447.66;4997578;28;20256;-69
2023/10/19 00:06:11;;;;;;;1.73;1.63;;;;;;;7.68;nan;-22443.69;4994699;28;20168;-71
2023/10/19 00:08:41;;;;;;;2.23;2.03;;;;;;;7.71;nan;-22444.44;4994289;28;20276;-70
2023/10/19 00:13:35;;;;;;;3.77;2.40;;;;;;;7.72;nan;-22444.59;4994045;28;20177;-69
2023/10/19 00:16:10;;;;;;;1.33;1.27;;;;;;;7.59;nan;-22441.22;4994129;28;20169;-68
2023/10/19 00:18:35;;;;;;;2.33;1.80;;;;;;;7.65;nan;-22442.91;4994003;28;20234;-69
2023/10/19 00:23:47;;;;;;;4.87;2.27;;;;;;;7.67;nan;-22443.41;4994293;28;20183;-68
2023/10/19 00:26:19;;;;;;;1.93;1.57;;;;;;;7.66;nan;-22443.03;4993897;28;20172;-68
2023/10/19 00:28:48;;;;;;;1.80;1.70;;;;;;;7.62;nan;-22759.38;4994068;28;20539;-71
2023/10/19 00:31:14;;;;;;;1.50;1.40;;;;;;;7.50;nan;-22756.22;4992606;28;20644;-70
2023/10/19 00:33:40;;;;;;;2.10;1.90;;;;;;;7.48;nan;-22755.69;4993909;28;20212;-70
2023/10/19 00:36:12;;;;;;;2.50;2.23;;;;;;;7.49;nan;-22756.06;4993732;28;20199;-69
2023/10/19 00:38:39;;;;;;;1.70;1.60;;;;;;;7.58;nan;-22758.31;4993890;28;20172;-68
2023/10/19 00:43:42;;;;;;;1.20;1.20;;;;;;;7.66;nan;-23077.50;4993651;28;20173;-71
2023/10/19 00:48:58;;;;;;;1.93;1.60;;;;;;;7.62;nan;-22759.38;4993506;28;20222;-69
2023/10/19 00:54:50;;;;;;;1.97;1.77;;;;;;;7.28;nan;-23067.44;4993464;28;20203;-70
2023/10/19 00:57:20;;;;;;;2.80;2.23;;;;;;;7.50;nan;-23073.47;4993299;28;20268;-69
2023/10/19 01:04:55;;;;;;;1.80;1.70;;;;;;;7.65;nan;-22760.16;4992948;28;20214;-70
2023/10/19 01:07:27;;;;;;;2.40;1.87;;;;;;;7.53;nan;-23074.16;4992804;28;20616;-71
2023/10/19 01:09:59;;;;;;;5.50;2.53;;;;;;;7.31;nan;-23068.25;5007715;28;20307;-69
2023/10/19 01:12:25;;;;;;;2.10;1.90;;;;;;;7.41;nan;-23388.00;4992898;28;20183;-69
2023/10/19 01:15:36;;;;;;;1.70;1.40;;;;;;;7.62;nan;-23393.72;4992681;28;20183;-69
2023/10/19 01:17:56;;;;;;;2.10;1.97;;;;;;;7.35;nan;-23386.34;4992086;28;20291;-71
2023/10/19 01:25:40;;;;;;;1.70;1.60;;;;;;;7.64;nan;-23394.13;4991170;28;20303;-70
2023/10/19 01:28:10;;;;;;;1.73;1.63;;;;;;;7.53;nan;-23391.28;4992621;28;20219;-71
2023/10/19 01:30:37;;;;;;;1.80;1.70;;;;;;;7.53;nan;-23391.41;4992661;28;20211;-70
2023/10/19 01:33:04;;;;;;;1.87;1.77;;;;;;;7.50;nan;-23390.59;4991985;28;20173;-69
2023/10/19 01:36:10;;;;;;;2.60;2.27;;;;;;;7.50;nan;-23707.53;4990859;28;20747;-71
2023/10/19 01:38:15;;;;;;;1.80;1.70;;;;;;;7.48;nan;-23707.09;4990002;28;20188;-69
2023/10/19 01:40:46;;;;;;;1.20;1.20;;;;;;;7.30;nan;-24019.03;4990285;28;20231;-67
2023/10/19 01:43:20;;;;;;;1.57;1.47;;;;;;;7.39;nan;-24021.59;4990579;28;20194;-70
2023/10/19 01:45:46;;;;;;;3.57;2.03;;;;;;;7.36;nan;-24022.44;4990807;28;20180;-67
2023/10/19 01:48:12;;;;;;;3.87;2.57;;;;;;;7.44;nan;-24024.72;4991483;28;20686;-68
2023/10/19 01:50:39;;;;;;;2.53;2.33;;;;;;;7.60;nan;-24029.25;4992649;28;20197;-69
2023/10/19 01:53:12;;;;;;;1.60;1.50;;;;;;;7.69;nan;-24029.94;4992647;28;20291;-68
2023/10/19 01:55:38;;;;;;;1.40;1.30;;;;;;;7.70;nan;-24030.22;4992936;28;20164;-70
2023/10/19 01:58:04;;;;;;;1.67;1.57;;;;;;;7.68;nan;-24029.50;4991255;28;20183;-70
2023/10/19 02:00:29;;;;;;;2.00;1.90;;;;;;;7.48;nan;-24024.00;4992704;28;20188;-70
2023/10/19 02:02:55;;;;;;;1.97;1.87;;;;;;;7.78;nan;-24032.34;4992590;28;20169;-69
2023/10/19 02:05:22;;;;;;;1.43;1.33;;;;;;;7.52;nan;-24025.28;4992693;28;20181;-70
2023/10/19 02:07:47;;;;;;;1.43;1.33;;;;;;;7.70;nan;-24030.22;4992516;28;20184;-70
2023/10/19 02:10:13;;;;;;;1.50;1.40;;;;;;;7.48;nan;-23706.97;5007279;28;20219;-70
2023/10/19 02:12:41;;;;;;;1.83;1.57;;;;;;;6.93;nan;-23691.78;4992586;28;20173;-69
2023/10/19 02:15:08;;;;;;;1.83;1.50;;;;;;;7.22;nan;-23699.72;4992514;28;20566;-68
2023/10/19 02:17:33;;;;;;;1.40;1.30;;;;;;;7.51;nan;-23707.94;4992891;28;20519;-70
2023/10/19 02:19:59;;;;;;;1.40;1.30;;;;;;;7.60;nan;-23710.31;4992126;28;20279;-70
2023/10/19 02:22:24;;;;;;;2.57;2.07;;;;;;;7.48;nan;-23706.97;4992580;28;20177;-67
2023/10/19 02:24:50;;;;;;;1.50;1.40;;;;;;;7.36;nan;-23703.63;4992348;28;20184;-70
2023/10/19 02:27:15;;;;;;;1.70;1.60;;;;;;;7.31;nan;-24019.16;4992317;28;20180;-70
2023/10/19 02:29:42;;;;;;;2.00;1.90;;;;;;;7.45;nan;-23706.25;4992144;28;20275;-67
2023/10/19 02:32:07;;;;;;;1.93;1.80;;;;;;;7.34;nan;-23703.22;4992145;28;20181;-69
2023/10/19 02:34:34;;;;;;;2.00;1.83;;;;;;;7.59;nan;-23710.03;4992452;28;20223;-70
2023/10/19 02:37:00;;;;;;;1.37;1.33;;;;;;;7.51;nan;-23707.78;4995572;28;20168;-69
2023/10/19 02:39:28;;;;;;;1.50;1.40;;;;;;;7.81;nan;-23716.16;4996006;28;20165;-71
2023/10/19 02:41:54;;;;;;;1.70;1.60;;;;;;;7.69;nan;-23712.81;4995647;28;20173;-71
2023/10/19 02:44:25;;;;;;;1.50;1.40;;;;;;;7.83;nan;-23716.56;4995409;28;20177;-68
2023/10/19 02:46:58;;;;;;;1.40;1.30;;;;;;;7.71;nan;-23713.38;4996076;28;20207;-70
2023/10/19 02:49:25;;;;;;;1.53;1.43;;;;;;;7.87;nan;-23400.53;4995891;28;20183;-68
2023/10/19 02:51:52;;;;;;;1.80;1.70;;;;;;;7.82;nan;-23081.91;4995749;28;20177;-70
2023/10/19 02:54:20;;;;;;;1.67;1.50;;;;;;;8.03;nan;-22769.88;4995010;28;20560;-70
2023/10/19 02:56:56;;;;;;;1.20;1.20;;;;;;;7.68;nan;-22443.69;4995607;28;20721;-70
2023/10/19 02:59:23;;;;;;;2.10;1.80;;;;;;;7.75;nan;-22445.34;4994069;28;20625;-69
2023/10/19 03:02:00;;;;;;;1.10;1.10;;;;;;;8.00;nan;-22451.78;4995460;28;20193;-70
2023/10/19 03:04:28;;;;;;;1.60;1.50;;;;;;;7.99;nan;-22451.53;4995555;28;20165;-68
2023/10/19 03:06:54;;;;;;;1.77;1.67;;;;;;;8.02;nan;-22134.72;4994811;28;20541;-68
2023/10/19 03:09:28;;;;;;;1.50;1.40;;;;;;;7.97;nan;-22451.00;4995396;28;20247;-71
2023/10/19 03:11:56;;;;;;;1.60;1.50;;;;;;;7.80;nan;-22129.28;4994893;28;20157;-70
2023/10/19 03:14:25;;;;;;;2.53;2.13;;;;;;;7.78;nan;-21811.53;4995319;28;20260;-69
2023/10/19 03:16:51;;;;;;;1.73;1.60;;;;;;;8.00;nan;-21816.97;5000683;28;20177;-69
2023/10/19 03:19:17;;;;;;;2.60;1.73;;;;;;;7.99;nan;-21816.59;5002744;28;20233;-70
2023/10/19 03:21:42;;;;;;;1.80;1.50;;;;;;;7.89;nan;-21814.25;4995374;28;20186;-69
2023/10/19 03:24:12;;;;;;;2.03;1.93;;;;;;;8.15;nan;-21185.19;4993028;28;20284;-69
2023/10/19 03:26:43;;;;;;;1.67;1.57;;;;;;;7.87;nan;-20543.75;4995065;28;20183;-69
2023/10/19 03:29:15;;;;;;;1.50;1.40;;;;;;;7.88;nan;-20861.44;4995105;28;20257;-68
2023/10/19 03:31:44;;;;;;;1.10;1.10;;;;;;;7.90;nan;-20862.00;4995168;28;20675;-69
2023/10/19 03:34:12;;;;;;;1.83;1.70;;;;;;;8.09;nan;-20548.50;4995041;28;20188;-68
2023/10/19 03:36:38;;;;;;;1.37;1.27;;;;;;;8.16;nan;-20232.38;4994813;28;20184;-69
2023/10/19 03:39:11;;;;;;;1.43;1.33;;;;;;;7.98;nan;-20228.50;4994843;28;20644;-70
2023/10/19 03:41:39;;;;;;;1.00;1.00;;;;;;;8.29;nan;-19917.41;4994901;28;20197;-70
2023/10/19 03:44:05;;;;;;;1.40;1.30;;;;;;;8.25;nan;-19598.81;4994797;28;20238;-67
2023/10/19 03:46:31;;;;;;;1.10;1.00;;;;;;;8.18;nan;-19597.34;4994354;28;20192;-69
2023/10/19 03:48:59;;;;;;;1.00;1.00;;;;;;;8.20;nan;-19597.66;4994335;28;20620;-69
2023/10/19 03:51:39;;;;;;;1.40;1.30;;;;;;;8.18;nan;-19915.16;4994753;28;20212;-68
2023/10/19 03:54:07;;;;;;;1.50;1.40;;;;;;;7.91;nan;-19909.44;4994433;28;20179;-69
2023/10/19 03:56:32;;;;;;;1.57;1.47;;;;;;;8.03;nan;-20229.63;4994365;28;20187;-70
2023/10/19 03:58:58;;;;;;;1.53;1.40;;;;;;;7.75;nan;-20540.94;4994047;28;20184;-70
2023/10/19 04:01:24;;;;;;;2.23;1.37;;;;;;;8.00;nan;-20228.94;4994524;28;20638;-68
2023/10/19 04:03:51;;;;;;;1.60;1.50;;;;;;;7.94;nan;-19910.09;4992857;28;20618;-72
2023/10/19 04:06:20;;;;;;;1.40;1.30;;;;;;;7.86;nan;-19908.25;4993324;28;20204;-71
2023/10/19 04:08:50;;;;;;;1.70;1.60;;;;;;;7.38;nan;-19580.63;4993789;28;20564;-68
2023/10/19 04:11:21;;;;;;;2.07;1.50;;;;;;;7.40;nan;-19581.06;4993702;28;20356;-69
2023/10/19 04:13:50;;;;;;;1.10;1.10;;;;;;;7.35;nan;-19897.47;4993725;28;20521;-71
2023/10/19 04:16:15;;;;;;;1.13;1.03;;;;;;;7.58;nan;-20219.78;4993097;28;20271;-72
2023/10/19 04:18:43;;;;;;;1.33;1.23;;;;;;;7.45;nan;-19582.09;4990862;28;20687;-72
2023/10/19 04:21:09;;;;;;;1.60;1.50;;;;;;;7.35;nan;-19580.00;4993396;28;20531;-69
2023/10/19 04:23:34;;;;;;;1.40;1.30;;;;;;;7.05;nan;-19573.78;4993442;28;20674;-68
2023/10/19 04:26:04;;;;;;;1.70;1.60;;;;;;;7.18;nan;-19576.41;4993282;28;20180;-72
2023/10/19 04:28:30;;;;;;;1.50;1.40;;;;;;;7.12;nan;-19257.88;4993444;28;20259;-71
2023/10/19 04:31:02;;;;;;;1.73;1.63;;;;;;;7.03;nan;-18938.88;4993027;28;20291;-70
2023/10/19 04:33:29;;;;;;;2.00;1.90;;;;;;;6.87;nan;-18935.66;4996667;28;20184;-70
2023/10/19 04:35:55;;;;;;;1.57;1.47;;;;;;;6.78;nan;-18933.97;4996891;28;20176;-70
2023/10/19 04:38:22;;;;;;;2.30;1.97;;;;;;;6.65;nan;-18931.34;4992575;28;20188;-70
2023/10/19 04:40:47;;;;;;;1.17;1.17;;;;;;;6.63;nan;-18930.94;4992603;28;20189;-70
2023/10/19 04:43:13;;;;;;;1.63;1.47;;;;;;;6.52;nan;-19245.75;4992096;28;20180;-69
2023/10/19 04:45:42;;;;;;;2.83;1.90;;;;;;;6.44;nan;-18927.13;4992131;28;20187;-70
2023/10/19 04:48:07;;;;;;;1.50;1.40;;;;;;;6.27;nan;-18923.84;4992268;28;20254;-69
2023/10/19 04:50:33;;;;;;;1.53;1.43;;;;;;;6.22;nan;-19239.78;4991500;28;20651;-69
2023/10/19 04:52:58;;;;;;;2.33;1.53;;;;;;;6.34;nan;-19558.91;4992318;28;20184;-69
2023/10/19 04:55:24;;;;;;;1.37;1.33;;;;;;;6.38;nan;-19242.88;4993113;28;20185;-69
2023/10/19 04:57:49;;;;;;;1.30;1.30;;;;;;;6.34;nan;-19558.91;4992502;28;20595;-70
2023/10/19 05:00:15;;;;;;;1.50;1.40;;;;;;;6.13;nan;-19871.34;4992361;28;20177;-69
2023/10/19 05:02:41;;;;;;;1.57;1.30;;;;;;;6.32;nan;-19875.34;4992597;28;20177;-68
2023/10/19 05:05:07;;;;;;;1.80;1.70;;;;;;;6.47;nan;-20195.47;4992241;28;20768;-71
2023/10/19 05:07:33;;;;;;;1.53;1.40;;;;;;;6.36;nan;-19876.31;4992658;28;20207;-69
2023/10/19 05:09:59;;;;;;;1.40;1.30;;;;;;;6.40;nan;-19877.16;4992547;28;20201;-69
2023/10/19 05:12:24;;;;;;;1.87;1.77;;;;;;;6.52;nan;-20196.56;4992108;28;20235;-70
2023/10/19 05:14:50;;;;;;;1.53;1.40;;;;;;;6.42;nan;-20194.34;4990727;28;20632;-69
2023/10/19 05:17:16;;;;;;;0.90;0.90;;;;;;;6.47;nan;-20195.56;4992371;28;20177;-71
2023/10/19 05:19:41;;;;;;;1.70;1.60;;;;;;;6.72;nan;-19883.97;4992379;28;20252;-71
2023/10/19 05:22:09;;;;;;;1.50;1.40;;;;;;;6.80;nan;-20202.75;4992692;28;20216;-69
2023/10/19 05:24:35;;;;;;;1.77;1.67;;;;;;;6.83;nan;-20203.31;4992405;28;20184;-71
2023/10/19 05:27:01;;;;;;;1.30;1.30;;;;;;;6.91;nan;-20205.09;4992325;28;20173;-69
2023/10/19 05:29:26;;;;;;;1.60;1.43;;;;;;;6.76;nan;-20201.75;4991964;28;20234;-67
2023/10/19 05:31:53;;;;;;;1.67;1.57;;;;;;;6.89;nan;-20521.81;4992399;28;20636;-70
2023/10/19 05:34:23;;;;;;;1.50;1.40;;;;;;;7.02;nan;-20207.63;4992251;28;20181;-70
2023/10/19 05:36:49;;;;;;;1.60;1.50;;;;;;;7.32;nan;-20214.03;4992703;28;20181;-68
2023/10/19 05:39:15;;;;;;;1.93;1.17;;;;;;;7.55;nan;-19901.69;4992119;28;20172;-68
2023/10/19 05:41:41;;;;;;;1.60;1.50;;;;;;;7.65;nan;-19586.31;4992190;28;20662;-71
2023/10/19 05:44:06;;;;;;;2.73;1.63;;;;;;;7.59;nan;-19267.53;4991913;28;20204;-69
2023/10/19 05:46:32;;;;;;;1.37;1.27;;;;;;;7.67;nan;-17998.59;4992088;28;20157;-69
2023/10/19 05:48:57;;;;;;;1.40;1.30;;;;;;;7.90;nan;-17367.03;4991710;28;20695;-67
2023/10/19 05:51:24;;;;;;;1.43;1.33;;;;;;;7.71;nan;-17363.75;4991652;28;20204;-69
2023/10/19 05:53:50;;;;;;;1.83;1.67;;;;;;;7.89;nan;-16413.09;4991535;28;20185;-70
2023/10/19 05:56:17;;;;;;;1.80;1.70;;;;;;;8.01;nan;-16096.94;4991904;28;20204;-69
2023/10/19 05:58:43;;;;;;;1.60;1.50;;;;;;;8.15;nan;-15780.91;4991827;28;20196;-69
2023/10/19 06:01:08;;;;;;;2.90;2.17;;;;;;;7.98;nan;-15778.47;4991907;28;20169;-68
2023/10/19 06:03:34;;;;;;;1.67;1.40;;;;;;;7.91;nan;-15459.38;4990150;28;20238;-69
2023/10/19 06:05:59;;;;;;;2.23;2.03;;;;;;;8.16;nan;-14826.31;4991939;28;20541;-71
2023/10/19 06:08:25;;;;;;;1.87;1.77;;;;;;;8.49;nan;-12600.84;4991583;28;20318;-69
2023/10/19 06:10:54;;;;;;;2.20;1.87;;;;;;;8.31;nan;-11324.66;4993501;28;20686;-68
2023/10/19 06:13:21;;;;;;;1.83;1.73;;;;;;;8.36;nan;-10368.72;4995462;28;20168;-68
2023/10/19 06:15:48;;;;;;;2.23;2.00;;;;;;;8.77;nan;-11646.94;4994548;28;20208;-67
2023/10/19 06:18:14;;;;;;;1.50;1.40;;;;;;;9.01;nan;-11329.75;4995741;28;20269;-71
2023/10/19 06:20:45;;;;;;;3.10;2.17;;;;;;;9.25;nan;-9415.84;4995773;28;20197;-71
2023/10/19 06:23:11;;;;;;;2.00;1.80;;;;;;;9.32;nan;-5261.28;4995919;28;20172;-71
2023/10/19 06:25:38;;;;;;;2.27;1.90;;;;;;;9.46;nan;-4941.03;4994230;28;20218;-68
2023/10/19 06:28:04;;;;;;;2.43;2.23;;;;;;;9.66;nan;-4620.38;4995734;28;20212;-68
2023/10/19 06:30:29;;;;;;;1.40;1.30;;;;;;;9.60;nan;-4300.56;4995807;28;20219;-68
2023/10/19 06:33:01;;;;;;;1.70;1.60;;;;;;;9.91;nan;-2057.03;5003111;28;20196;-68
2023/10/19 06:35:27;;;;;;;1.40;1.33;;;;;;;9.92;nan;-2697.72;5005810;28;20267;-71
2023/10/19 06:37:56;;;;;;;1.83;1.73;;;;;;;9.86;nan;-3018.47;4996682;28;20193;-70
2023/10/19 06:40:22;;;;;;;2.00;1.83;;;;;;;9.87;nan;-3659.00;4995388;28;20181;-71
2023/10/19 06:42:49;;;;;;;1.70;1.60;;;;;;;9.85;nan;-4619.66;4995943;28;20192;-69
2023/10/19 06:45:16;;;;;;;1.80;1.70;;;;;;;10.08;nan;-6539.84;4995857;28;20588;-71
2023/10/19 06:47:46;;;;;;;1.10;1.10;;;;;;;10.11;nan;-6219.72;4996066;28;20188;-70
2023/10/19 06:50:15;;;;;;;1.60;1.40;;;;;;;9.71;nan;-7179.78;4995686;28;20292;-70
2023/10/19 06:52:42;;;;;;;2.80;1.80;;;;;;;10.24;nan;-7820.16;4995539;28;20523;-71
2023/10/19 06:55:19;;;;;;;1.30;1.20;;;;;;;10.67;nan;-6539.50;4995204;28;20565;-71
2023/10/19 06:57:47;;;;;;;1.80;1.70;;;;;;;10.63;nan;-3654.94;4995356;28;20156;-70
2023/10/19 07:00:20;;;;;;;2.15;1.95;;;;;;;11.13;nan;-1726.34;4995104;28;20177;-70
2023/10/19 07:02:50;;;;;;;1.83;1.65;;;;;;;11.32;nan;5993.06;4995542;28;20173;-70
2023/10/19 07:05:29;;;;;;;2.45;2.25;;;;;;;11.28;nan;4704.75;4995325;28;20173;-70
2023/10/19 07:07:56;;;;;;;2.75;2.33;;;;;;;11.11;nan;5345.09;4995192;28;20168;-69
2023/10/19 07:10:23;;;;;;;2.45;1.77;;;;;;;11.62;nan;7932.56;4995256;28;20255;-70
2023/10/19 07:12:51;;;;;;;1.35;1.25;;;;;;;11.83;nan;10518.16;4994009;28;20620;-71
2023/10/19 07:15:22;;;;;;;4.50;2.13;;;;;;;11.67;nan;11803.97;4995225;28;20236;-71
2023/10/19 07:17:48;;;;;;;2.42;1.77;;;;;;;11.51;nan;12767.34;4993692;28;20180;-71
2023/10/19 07:20:26;;;;;;;2.83;1.90;;;;;;;11.71;nan;10514.56;4995958;28;20227;-69
2023/10/19 07:22:56;;;;;;;2.15;1.95;;;;;;;11.64;nan;8900.13;4994355;28;20176;-69
2023/10/19 07:25:22;;;;;;;1.45;1.38;;;;;;;11.81;nan;9549.75;4995707;28;20237;-71
2023/10/19 07:27:52;;;;;;;2.15;1.95;;;;;;;11.93;nan;10521.03;4994822;28;20234;-69
2023/10/19 07:30:21;;;;;;;2.22;1.80;;;;;;;12.06;nan;10847.44;4994711;28;20296;-69
2023/10/19 07:32:54;;;;;;;1.67;1.55;;;;;;;12.18;nan;12465.59;4995130;28;20642;-71
2023/10/19 07:35:25;;;;;;;1.92;1.63;;;;;;;12.47;nan;16031.88;5010450;28;20173;-70
2023/10/19 07:37:51;;;;;;;2.10;1.80;;;;;;;12.22;nan;19258.25;4995341;28;20204;-71
2023/10/19 07:40:18;;;;;;;2.05;1.65;;;;;;;12.44;nan;23804.38;4993871;28;20295;-69
2023/10/19 07:42:44;;;;;;;1.63;1.52;;;;;;;12.68;nan;26087.91;4994607;28;20603;-71
2023/10/19 07:45:11;;;;;;;2.50;2.03;;;;;;;12.34;nan;28341.88;4994832;28;20176;-69
2023/10/19 07:47:40;;;;;;;2.08;1.88;;;;;;;12.74;nan;28039.72;4994894;28;20173;-71
2023/10/19 07:50:15;;;;;;;3.40;2.10;;;;;;;12.86;nan;27721.75;4993180;28;20212;-71
2023/10/19 07:52:43;;;;;;;1.92;1.83;;;;;;;12.98;nan;30979.69;4994288;28;20183;-70
2023/10/19 07:55:09;;;;;;;2.15;1.95;;;;;;;13.15;nan;36525.63;4994274;28;20193;-70
2023/10/19 07:57:35;;;;;;;1.70;1.45;;;;;;;13.43;nan;40126.13;4995071;28;20781;-70
2023/10/19 08:00:00;;;;;;;4.15;2.00;;;;;;;13.62;nan;43244.03;4994118;28;20288;-69
2023/10/19 08:02:26;;;;;;;2.42;2.22;;;;;;;13.73;nan;45935.88;4994646;28;20168;-68
2023/10/19 08:04:52;;;;;;;1.83;1.63;;;;;;;13.76;nan;47711.75;5009349;28;20640;-70
2023/10/19 08:07:17;;;;;;;1.90;1.70;;;;;;;13.98;nan;50497.97;4994306;28;20168;-69
2023/10/19 08:09:43;;;;;;;4.45;2.00;;;;;;;14.16;nan;51201.94;4992734;28;20188;-69
2023/10/19 08:12:09;;;;;;;1.92;1.80;;;;;;;;;;4994977;28;20165;-71
2023/10/19 08:14:35;;;;;;;2.08;1.88;;;;;;;14.23;nan;52955.19;4994372;28;20179;-68
2023/10/19 08:17:01;;;;;;;2.65;2.25;;;;;;;14.27;nan;53402.59;4994853;28;20169;-71
2023/10/19 08:19:31;;;;;;;1.70;1.60;;;;;;;14.13;nan;53858.16;4994320;28;20725;-69
2023/10/19 08:21:57;;;;;;;3.75;1.80;;;;;;;14.36;nan;54819.97;4994748;28;20177;-69
2023/10/19 08:24:23;;;;;;;1.52;1.42;;;;;;;14.53;nan;55119.09;4993823;28;20176;-70
2023/10/19 08:26:50;;;;;;;2.42;2.22;;;;;;;14.65;nan;55364.97;4993508;28;20260;-70
2023/10/19 08:29:16;;;;;;;2.55;2.28;;;;;;;14.47;nan;55759.53;4993789;28;20188;-71
2023/10/19 08:31:44;;;;;;;2.92;1.83;;;;;;;14.44;nan;54725.56;4994062;28;20323;-68
2023/10/19 08:34:11;;;;;;;2.78;2.03;;;;;;;14.33;nan;54965.16;4993632;28;20252;-69
2023/10/19 08:36:40;;;;;;;1.88;1.65;;;;;;;14.16;nan;54958.47;4993690;28;20187;-70
2023/10/19 08:39:11;;;;;;;2.95;1.90;;;;;;;14.02;nan;54116.19;4993768;28;20200;-69
2023/10/19 08:41:39;;;;;;;2.55;1.70;;;;;;;14.24;nan;54843.59;4994100;28;20181;-71
2023/10/19 08:44:10;;;;;;;1.98;1.77;;;;;;;14.28;nan;54439.94;4993587;28;20191;-71
2023/10/19 08:46:43;;;;;;;2.40;2.13;;;;;;;14.59;nan;54773.72;4993702;28;20255;-70
2023/10/19 08:49:12;;;;;;;2.05;1.85;;;;;;;14.69;nan;56336.91;4993424;28;20192;-70
2023/10/19 08:51:38;;;;;;;2.60;1.85;;;;;;;14.93;nan;56690.31;4993157;28;20196;-70
2023/10/19 08:54:10;;;;;;;2.60;1.77;;;;;;;15.30;nan;57192.00;4993301;28;20562;-70
2023/10/19 08:56:36;;;;;;;4.18;2.33;;;;;;;15.54;nan;57877.94;4993383;28;20161;-72
2023/10/19 08:59:01;;;;;;;2.08;1.63;;;;;;;15.48;nan;57838.03;4993368;28;20179;-72
2023/10/19 09:01:28;;;;;;;4.40;2.60;;;;;;;15.58;nan;57951.69;4993438;28;20242;-69
2023/10/19 09:03:57;;;;;;;3.47;2.20;;;;;;;15.65;nan;58161.91;4993352;28;20172;-71
2023/10/19 09:06:22;;;;;;;3.60;2.65;;;;;;;15.78;nan;58261.38;5008100;28;20180;-72
2023/10/19 09:08:48;;;;;;;3.42;1.98;;;;;;;15.96;nan;58313.19;4993349;28;20169;-71
2023/10/19 09:11:15;;;;;;;3.35;2.15;;;;;;;15.99;nan;58540.97;4993223;28;20302;-70
2023/10/19 09:13:49;;;;;;;2.63;2.00;;;;;;;15.72;nan;58980.09;4991986;28;20204;-71
2023/10/19 09:16:19;;;;;;;3.78;2.47;;;;;;;15.44;nan;58549.28;4993518;28;20546;-70
2023/10/19 09:18:46;;;;;;;5.68;2.95;;;;;;;15.31;nan;58604.63;4992784;28;20216;-71
2023/10/19 09:21:24;;;;;;;3.63;2.40;;;;;;;15.28;nan;58114.84;4992670;28;20231;-71
2023/10/19 09:23:57;;;;;;;2.30;1.83;;;;;;;15.27;nan;58494.84;4993237;28;20180;-71
2023/10/19 09:26:23;;;;;;;2.58;2.25;;;;;;;15.15;nan;58088.53;4992905;28;20229;-70
2023/10/19 09:28:50;;;;;;;4.70;3.17;;;;;;;15.37;nan;58327.69;4992401;28;20557;-71
2023/10/19 09:31:17;;;;;;;3.50;2.28;;;;;;;15.45;nan;58642.44;4993000;28;20223;-70
2023/10/19 09:33:43;;;;;;;2.90;2.20;;;;;;;15.22;nan;58299.16;4992699;28;20253;-70
2023/10/19 09:36:13;;;;;;;5.13;3.72;;;;;;;15.57;nan;58122.97;4990863;28;20177;-71
2023/10/19 09:38:48;;;;;;;2.72;1.95;;;;;;;15.56;nan;58847.38;4990869;28;20561;-71
2023/10/19 09:41:17;;;;;;;2.17;1.95;;;;;;;15.63;nan;59035.13;4992357;28;20211;-71
2023/10/19 09:43:44;;;;;;;3.00;2.00;;;;;;;15.73;nan;59274.59;4992029;28;20161;-70
2023/10/19 09:46:12;;;;;;;4.68;2.33;;;;;;;15.78;nan;59378.44;4991600;28;20249;-68
2023/10/19 09:48:50;;;;;;;2.20;1.95;;;;;;;15.65;nan;59312.16;4992102;28;20168;-69
2023/10/19 09:51:17;;;;;;;1.80;1.70;;;;;;;15.56;nan;59114.97;4992308;28;20549;-69
2023/10/19 09:53:51;;;;;;;2.58;2.17;;;;;;;16.10;nan;59577.34;4992406;28;20184;-70
2023/10/19 09:56:27;;;;;;;2.03;1.67;;;;;;;16.07;nan;60009.34;5000262;28;20220;-68
2023/10/19 09:58:58;;;;;;;4.00;2.08;;;;;;;16.39;nan;59954.06;4999292;28;20191;-70
2023/10/19 10:01:26;;;;;;;1.83;1.60;;;;;;;16.39;nan;59915.41;4992509;28;20183;-71
2023/10/19 10:03:52;;;;;;;2.92;1.90;;;;;;;16.35;nan;59952.78;4992554;28;20172;-69
2023/10/19 10:06:50;;;;;;;1.88;1.58;;;;;;;16.65;nan;60331.53;4992063;28;20711;-71
2023/10/19 10:09:21;;;;;;;3.55;2.38;;;;;;;16.07;nan;60280.41;4992610;28;20176;-71
2023/10/19 10:11:54;;;;;;;1.58;1.45;;;;;;;15.99;nan;60139.56;4992780;28;20631;-71
2023/10/19 10:14:24;;;;;;;2.40;1.52;;;;;;;16.28;nan;60171.78;4992919;28;20173;-71
2023/10/19 10:17:01;;;;;;;1.98;1.77;;;;;;;16.18;nan;60364.22;4992548;28;20184;-71
2023/10/19 10:19:26;;;;;;;1.95;1.63;;;;;;;16.22;nan;60268.19;4992186;28;20230;-71
2023/10/19 10:22:11;;;;;;;2.55;1.77;;;;;;;16.25;nan;60212.81;4991276;28;20663;-71
2023/10/19 10:24:43;;;;;;;1.67;1.58;;;;;;;16.43;nan;60213.66;4991481;28;20255;-68
2023/10/19 10:27:09;;;;;;;2.55;1.80;;;;;;;16.77;nan;60354.66;4991838;28;20663;-69
2023/10/19 10:29:35;;;;;;;3.72;1.70;;;;;;;16.91;nan;60488.38;4991889;28;20173;-69
2023/10/19 10:32:01;;;;;;;2.05;1.58;;;;;;;17.28;nan;60629.81;4992663;28;20177;-69
2023/10/19 10:34:42;;;;;;;2.97;1.58;;;;;;;17.32;nan;60644.59;4992187;28;20259;-70
2023/10/19 10:37:09;;;;;;;3.00;2.10;;;;;;;17.55;nan;60637.31;4992322;28;20183;-73
2023/10/19 10:39:36;;;;;;;3.20;1.55;;;;;;;17.64;nan;60843.16;4992282;28;20637;-72
2023/10/19 10:42:06;;;;;;;2.88;1.73;;;;;;;17.86;nan;60849.72;4992429;28;20239;-73
2023/10/19 10:44:39;;;;;;;1.77;1.55;;;;;;;18.28;nan;60825.91;4991918;28;20185;-72
2023/10/19 10:47:10;;;;;;;2.30;1.60;;;;;;;18.36;nan;61016.47;4992126;28;20538;-71
2023/10/19 10:49:52;;;;;;;1.70;1.40;;;;;;;18.45;nan;61220.06;4991933;28;20172;-72
2023/10/19 10:52:32;;;;;;;2.30;1.45;;;;;;;18.29;nan;61253.72;4992034;28;20216;-71
2023/10/19 10:54:59;;;;;;;4.43;1.63;;;;;;;17.79;nan;61082.19;4992046;28;20637;-71
2023/10/19 10:57:31;;;;;;;2.60;1.95;;;;;;;17.55;nan;61039.66;4994296;28;20173;-70
2023/10/19 11:00:09;;;;;;;1.80;1.70;;;;;;;17.40;nan;61002.69;4995595;28;20169;-72
2023/10/19 11:02:36;;;;;;;2.13;1.73;;;;;;;17.34;nan;60992.81;4995841;28;20631;-70
2023/10/19 11:05:02;;;;;;;2.40;1.70;;;;;;;17.49;nan;61025.72;4995381;28;20199;-70
2023/10/19 11:07:28;;;;;;;1.38;1.10;;;;;;;17.78;nan;61075.34;4995657;28;20185;-70
2023/10/19 11:09:54;;;;;;;1.33;1.23;;;;;;;17.78;nan;61021.06;4995240;28;20206;-71
2023/10/19 11:12:20;;;;;;;1.70;1.48;;;;;;;17.89;nan;61070.19;4995408;28;20519;-70
2023/10/19 11:14:57;;;;;;;1.70;1.55;;;;;;;17.82;nan;61144.44;4995642;28;20208;-72
2023/10/19 11:17:31;;;;;;;1.35;1.25;;;;;;;18.06;nan;61070.66;4995325;28;20180;-70
2023/10/19 11:19:58;;;;;;;2.65;1.73;;;;;;;18.32;nan;61251.94;4995951;28;20216;-72
2023/10/19 11:22:25;;;;;;;1.65;1.42;;;;;;;18.20;nan;61311.38;4995614;28;20169;-69
2023/10/19 11:24:52;;;;;;;1.67;1.48;;;;;;;18.29;nan;61209.75;4995250;28;20654;-71
2023/10/19 11:27:27;;;;;;;1.45;1.27;;;;;;;18.30;nan;61353.69;4995287;28;20643;-72
2023/10/19 11:29:56;;;;;;;2.08;1.67;;;;;;;18.34;nan;61236.66;4994834;28;20183;-71
2023/10/19 11:32:25;;;;;;;1.67;1.27;;;;;;;17.99;nan;61142.91;4995223;28;20169;-72
2023/10/19 11:34:56;;;;;;;2.38;2.00;;;;;;;18.06;nan;61187.00;4995144;28;20682;-70
2023/10/19 11:37:22;;;;;;;1.63;1.52;;;;;;;18.03;nan;61175.84;4994651;28;20192;-71
2023/10/19 11:39:49;;;;;;;2.22;1.80;;;;;;;18.04;nan;61308.81;4995332;28;20226;-72
2023/10/19 11:42:15;;;;;;;1.73;1.35;;;;;;;17.91;nan;61146.81;4994829;28;20169;-72
2023/10/19 11:44:41;;;;;;;1.92;1.33;;;;;;;18.17;nan;61222.66;4994451;28;20226;-70
2023/10/19 11:47:06;;;;;;;1.95;1.60;;;;;;;18.24;nan;61227.41;4994590;28;20250;-72
2023/10/19 11:49:32;;;;;;;1.92;1.73;;;;;;;18.30;nan;61221.81;4994512;28;20185;-71
2023/10/19 11:51:57;;;;;;;1.95;1.55;;;;;;;18.33;nan;61444.47;4994367;28;20286;-70
2023/10/19 11:54:23;;;;;;;2.08;1.80;;;;;;;18.65;nan;61309.31;4994662;28;20177;-70
2023/10/19 11:56:49;;;;;;;2.05;1.60;;;;;;;18.71;nan;61305.75;4994853;28;20195;-70
2023/10/19 11:59:15;;;;;;;4.63;2.13;;;;;;;18.76;nan;61428.44;4994596;28;20180;-70
2023/10/19 12:01:42;;;;;;;2.25;1.42;;;;;;;18.56;nan;61581.19;4994168;28;20639;-70
2023/10/19 12:04:09;;;;;;;2.15;1.70;;;;;;;18.35;nan;61294.13;4994531;28;20228;-68
2023/10/19 12:06:35;;;;;;;2.00;1.80;;;;;;;18.50;nan;61357.59;4994249;28;20625;-69
2023/10/19 12:09:14;;;;;;;1.80;1.48;;;;;;;18.44;nan;61343.66;4993838;28;20184;-71
2023/10/19 12:11:44;;;;;;;2.10;1.48;;;;;;;18.41;nan;61366.13;4993889;28;20212;-70
2023/10/19 12:14:14;;;;;;;1.80;1.30;;;;;;;18.24;nan;61374.78;4993742;28;20600;-69
2023/10/19 12:16:40;;;;;;;2.22;2.03;;;;;;;18.04;nan;61308.81;4994483;28;20259;-70
2023/10/19 12:19:07;;;;;;;2.85;2.05;;;;;;;17.98;nan;61341.38;4993483;28;20233;-69
2023/10/19 12:21:33;;;;;;;2.47;1.42;;;;;;;17.70;nan;61213.59;4992523;28;20552;-69